Accueil
METAR-TAF:

METAR-TAF

Aéroports :

Aéroport de Bournemouth

Bornemouth, Angleterre

latitude: 50-47N, longitude: 001-50W, altitude: 11 m

Observation

Le bulletin a été fait il y a 33 minutes, à 19:20 UTC
Vent 9 kt de sud-ouest
Température 17°C
Humidité 77%
Pression 1015 hPa
Visibilité 10 km ou plus
Quelques nuages à une hauteur de 2000 ft

METAR: EGHH 041920Z 23009KT 9999 FEW020 17/13 Q1015

Heure: 20:53 (19:53 UTC)

Prévision

Le bulletin a été fait il y a 2 heures et 56 minutes, à 16:57 UTC
Prévision valable du 04 à 18 UTC au 04 à 21 UTC
Vent 12 kt de sud-ouest
Visibilité 10 km ou plus
Quelques nuages à une hauteur de 4500 ft
Probabilité 30%
du 04 à 19 UTC au 04 à 21 UTC
Nuages fragmentés à une hauteur de 1400 ft

TAF: EGHH 041657Z 0418/0421 22012KT 9999 FEW045 PROB30 0419/0421 BKN014

Observations et prévisions météorologiques de plus de 4000 aéroports (messages METAR et TAF).

Les stations disponibles sont représentées par des disques jaunes et rouges sur la carte.

Passer la souris dessus pour voir le nom de la station.

Cliquer dessus pour voir les observations et prévisions météorologiques.

Pour changer de carte: cliquez sur les boutons verts avec une croix noire pour zoomer, sur le bouton vert avec un tiret pour effectuer un zoom arrière, ou sur les flèches vertes pour les cartes adjacentes.


METAR-TAF: